Time;durP1;ratioP1;P1;durP2;ratioP2;P2;SDS_P1;SDS_P2;PMS_P1;PMS_P2;Temp;Humidity;BMP_temperature;BMP_pressure;BME280_temperature;BME280_humidity;BME280_pressure;Samples;Min_cycle;Max_cycle;Signal;HPM_P1;HPM_P2
2023/07/20 00:01:19;;;;;;;2.05;1.23;;;;;;;-143.49;100.00;65027.28;5107383;28;20028;-67
2023/07/20 00:03:44;;;;;;;2.28;1.38;;;;;;;-143.49;100.00;65027.28;5108905;28;20053;-71
2023/07/20 00:06:10;;;;;;;3.00;1.10;;;;;;;-143.49;100.00;65027.28;5090091;28;20024;-67
2023/07/20 00:08:35;;;;;;;1.10;0.98;;;;;;;-143.49;100.00;65027.28;5089709;28;20044;-68
2023/07/20 00:11:00;;;;;;;1.60;1.17;;;;;;;-143.49;100.00;65027.28;5108256;28;20490;-68
2023/07/20 00:13:25;;;;;;;1.27;1.02;;;;;;;-143.49;100.00;65027.28;5097166;28;20016;-68
2023/07/20 00:15:52;;;;;;;2.38;1.15;;;;;;;-143.49;100.00;65027.28;5100221;28;20028;-68
2023/07/20 00:18:21;;;;;;;1.85;1.30;;;;;;;-143.49;100.00;65027.28;5118105;28;20043;-69
2023/07/20 00:20:46;;;;;;;2.28;1.20;;;;;;;-143.49;100.00;65027.28;5112896;28;20024;-69
2023/07/20 00:23:12;;;;;;;1.48;1.08;;;;;;;-143.49;100.00;65027.28;5116977;28;20030;-70
2023/07/20 00:25:37;;;;;;;1.58;1.10;;;;;;;-143.49;100.00;65027.28;5098314;28;20031;-70
2023/07/20 00:28:02;;;;;;;2.33;1.20;;;;;;;-143.49;100.00;65027.28;5109637;28;20024;-69
2023/07/20 00:30:27;;;;;;;3.20;1.02;;;;;;;-143.49;100.00;65027.28;5106453;28;20016;-68
2023/07/20 00:32:53;;;;;;;1.02;0.98;;;;;;;-143.49;100.00;65027.28;5103153;28;20429;-68
2023/07/20 00:35:18;;;;;;;1.58;0.90;;;;;;;-143.49;100.00;65027.28;5102754;28;20024;-68
2023/07/20 00:37:43;;;;;;;1.95;1.20;;;;;;;-143.49;100.00;65027.28;5101370;28;20035;-68
2023/07/20 00:40:09;;;;;;;1.67;1.20;;;;;;;-143.49;100.00;65027.28;5100898;28;20020;-69
2023/07/20 00:42:34;;;;;;;2.00;1.17;;;;;;;-143.49;100.00;65027.28;5099941;28;20017;-69
2023/07/20 00:45:00;;;;;;;2.30;1.38;;;;;;;-143.49;100.00;65027.28;5099518;28;20020;-68
2023/07/20 00:47:27;;;;;;;4.28;1.50;;;;;;;-143.49;100.00;65027.28;5099215;28;20107;-67
2023/07/20 00:49:52;;;;;;;1.73;1.30;;;;;;;-143.49;100.00;65027.28;5097687;28;20020;-68
2023/07/20 00:52:18;;;;;;;2.35;1.50;;;;;;;-143.49;100.00;65027.28;5097650;28;20042;-68
2023/07/20 00:54:44;;;;;;;4.40;1.50;;;;;;;-143.49;100.00;65027.28;5096782;28;20027;-67
2023/07/20 00:57:09;;;;;;;3.50;1.40;;;;;;;-143.49;100.00;65027.28;5096306;28;20028;-67
2023/07/20 00:59:35;;;;;;;3.30;1.60;;;;;;;-143.49;100.00;65027.28;5078004;28;20360;-67
2023/07/20 01:02:01;;;;;;;3.38;1.50;;;;;;;-143.49;100.00;65027.28;5095787;28;20086;-67
2023/07/20 01:04:28;;;;;;;2.65;1.63;;;;;;;-143.49;100.00;65027.28;5096107;28;20210;-68
2023/07/20 01:07:10;;;;;;;2.15;1.40;;;;;;;-143.49;100.00;65027.28;5095888;28;20020;-67
2023/07/20 01:09:48;;;;;;;4.78;1.70;;;;;;;-143.49;100.00;65027.28;5095894;28;20050;-68
2023/07/20 01:12:51;;;;;;;2.58;1.80;;;;;;;-143.49;100.00;65027.28;5095881;28;20023;-68
2023/07/20 01:15:17;;;;;;;3.22;1.90;;;;;;;-143.49;100.00;65027.28;5091747;28;20040;-68
2023/07/20 01:17:43;;;;;;;2.60;1.90;;;;;;;-143.49;100.00;65027.28;5095553;28;20023;-68
2023/07/20 01:20:12;;;;;;;4.05;2.03;;;;;;;-143.49;100.00;65027.28;5095307;28;20020;-68
2023/07/20 01:22:41;;;;;;;2.15;1.60;;;;;;;-143.49;100.00;65027.28;5095608;28;20028;-68
2023/07/20 01:25:39;;;;;;;2.97;1.70;;;;;;;-143.49;100.00;65027.28;5095345;28;20054;-68
2023/07/20 01:28:35;;;;;;;4.65;2.17;;;;;;;-143.49;100.00;65027.28;5089758;28;20526;-67
2023/07/20 01:31:24;;;;;;;4.05;2.00;;;;;;;-143.49;100.00;65027.28;5095486;28;20016;-68
2023/07/20 01:33:51;;;;;;;2.50;1.92;;;;;;;-143.49;100.00;65027.28;5077198;28;20036;-68
2023/07/20 01:36:18;;;;;;;2.50;1.80;;;;;;;-143.49;100.00;65027.28;5095380;28;20499;-68
2023/07/20 01:38:46;;;;;;;3.00;1.83;;;;;;;-143.49;100.00;65027.28;5095401;28;20049;-68
2023/07/20 01:41:11;;;;;;;2.92;1.90;;;;;;;-143.49;100.00;65027.28;5077028;28;20376;-69
2023/07/20 01:43:37;;;;;;;2.80;2.03;;;;;;;-143.49;100.00;65027.28;5076936;28;20031;-68
2023/07/20 01:46:02;;;;;;;4.35;2.10;;;;;;;-143.49;100.00;65027.28;5094956;28;20543;-68
2023/07/20 01:48:28;;;;;;;3.20;2.15;;;;;;;-143.49;100.00;65027.28;5076818;28;20495;-68
2023/07/20 01:50:53;;;;;;;4.40;2.13;;;;;;;-143.49;100.00;65027.28;5095136;28;20106;-67
2023/07/20 01:53:20;;;;;;;3.88;2.30;;;;;;;-143.49;100.00;65027.28;5076672;28;20024;-68
2023/07/20 01:55:45;;;;;;;3.85;2.30;;;;;;;-143.49;100.00;65027.28;5094729;28;20527;-68
2023/07/20 01:58:11;;;;;;;3.13;2.10;;;;;;;-143.49;100.00;65027.28;5094631;28;20095;-68
2023/07/20 02:00:39;;;;;;;3.45;2.22;;;;;;;-143.49;100.00;65027.28;5094798;28;20431;-67
2023/07/20 02:03:05;;;;;;;4.30;2.13;;;;;;;-143.49;100.00;65027.28;5094778;28;20494;-67
2023/07/20 02:05:30;;;;;;;4.13;2.10;;;;;;;-143.49;100.00;65027.28;5094784;28;20097;-67
2023/07/20 02:07:56;;;;;;;3.22;2.10;;;;;;;-143.49;100.00;65027.28;5102327;28;20043;-67
2023/07/20 02:10:22;;;;;;;4.38;2.00;;;;;;;-143.49;100.00;65027.28;5103032;28;20024;-68
2023/07/20 02:12:47;;;;;;;4.38;2.10;;;;;;;-143.49;100.00;65027.28;5102393;28;20117;-67
2023/07/20 02:15:16;;;;;;;3.65;2.30;;;;;;;-143.49;100.00;65027.28;5082656;28;20032;-67
2023/07/20 02:17:41;;;;;;;3.22;2.13;;;;;;;-143.49;100.00;65027.28;5102505;28;20077;-68
2023/07/20 02:20:10;;;;;;;6.15;2.20;;;;;;;-143.49;100.00;65027.28;5101754;28;20537;-68
2023/07/20 02:22:37;;;;;;;3.42;2.05;;;;;;;-143.49;100.00;65027.28;5102357;28;20035;-68
2023/07/20 02:25:04;;;;;;;3.70;2.15;;;;;;;-143.49;100.00;65027.28;5102949;28;20023;-68
2023/07/20 02:27:30;;;;;;;5.72;2.20;;;;;;;-143.49;100.00;65027.28;5097561;28;20016;-68
2023/07/20 02:29:55;;;;;;;5.45;2.70;;;;;;;-143.49;100.00;65027.28;5094174;28;20024;-66
2023/07/20 02:32:21;;;;;;;4.50;2.60;;;;;;;-143.49;100.00;65027.28;5075632;28;20081;-66
2023/07/20 02:34:46;;;;;;;3.95;2.50;;;;;;;-143.49;100.00;65027.28;5075649;28;20063;-67
2023/07/20 02:37:12;;;;;;;6.40;2.60;;;;;;;-143.49;100.00;65027.28;5093569;28;20030;-67
2023/07/20 02:39:38;;;;;;;3.47;2.45;;;;;;;-143.49;100.00;65027.28;5093798;28;20035;-67
2023/07/20 02:42:04;;;;;;;4.28;2.30;;;;;;;-143.49;100.00;65027.28;5093580;28;20024;-67
2023/07/20 02:44:30;;;;;;;6.30;2.45;;;;;;;-143.49;100.00;65027.28;5093543;28;20023;-69
2023/07/20 02:46:55;;;;;;;4.05;2.38;;;;;;;-143.49;100.00;65027.28;5093299;28;20084;-68
2023/07/20 02:49:21;;;;;;;5.03;2.65;;;;;;;-143.49;100.00;65027.28;5093208;28;20509;-68
2023/07/20 02:51:46;;;;;;;5.38;2.70;;;;;;;-143.49;100.00;65027.28;5075093;28;20438;-67
2023/07/20 02:54:12;;;;;;;3.75;2.55;;;;;;;-143.49;100.00;65027.28;5092971;28;20049;-66
2023/07/20 02:56:37;;;;;;;4.50;2.95;;;;;;;-143.49;100.00;65027.28;5074805;28;20027;-67
2023/07/20 02:59:03;;;;;;;4.63;2.90;;;;;;;-143.49;100.00;65027.28;5074909;28;20036;-67
2023/07/20 03:01:29;;;;;;;6.78;2.80;;;;;;;-143.49;100.00;65027.28;5092916;28;20031;-67
2023/07/20 03:03:55;;;;;;;4.68;2.80;;;;;;;-143.49;100.00;65027.28;5093090;28;20110;-67
2023/07/20 03:06:20;;;;;;;4.07;2.85;;;;;;;-143.49;100.00;65027.28;5092872;28;20034;-67
2023/07/20 03:08:48;;;;;;;3.75;2.80;;;;;;;-143.49;100.00;65027.28;5056053;28;1058653;-68
2023/07/20 03:11:17;;;;;;;3.50;2.67;;;;;;;-143.49;100.00;65027.28;5093620;28;20062;-68
2023/07/20 03:13:43;;;;;;;3.92;2.65;;;;;;;-143.49;100.00;65027.28;5093616;28;20053;-67
2023/07/20 03:16:11;;;;;;;4.03;2.63;;;;;;;-143.49;100.00;65027.28;5093433;28;20024;-67
2023/07/20 03:18:39;;;;;;;5.22;3.00;;;;;;;-143.49;100.00;65027.28;5093388;28;20509;-67
2023/07/20 03:21:05;;;;;;;6.53;2.90;;;;;;;-143.49;100.00;65027.28;5075592;28;20026;-67
2023/07/20 03:23:31;;;;;;;5.63;2.97;;;;;;;-143.49;100.00;65027.28;5093470;28;20043;-67
2023/07/20 03:25:56;;;;;;;4.93;2.72;;;;;;;-143.49;100.00;65027.28;5074309;28;20024;-68
2023/07/20 03:28:22;;;;;;;4.60;2.83;;;;;;;-143.49;100.00;65027.28;5093459;28;20031;-68
2023/07/20 03:30:53;;;;;;;7.80;2.90;;;;;;;-143.49;100.00;65027.28;5093297;28;20490;-68
2023/07/20 03:33:18;;;;;;;4.82;2.80;;;;;;;-143.49;100.00;65027.28;5093331;28;20121;-68
2023/07/20 03:35:43;;;;;;;3.10;2.50;;;;;;;-143.49;100.00;65027.28;5075265;28;20469;-68
2023/07/20 03:38:09;;;;;;;5.00;2.40;;;;;;;-143.49;100.00;65027.28;5093873;28;20020;-68
2023/07/20 03:40:34;;;;;;;5.55;2.80;;;;;;;-143.49;100.00;65027.28;5093447;28;20062;-68
2023/07/20 03:42:59;;;;;;;7.60;2.88;;;;;;;-143.49;100.00;65027.28;5093315;28;20044;-67
2023/07/20 03:45:24;;;;;;;7.90;2.63;;;;;;;-143.49;100.00;65027.28;5075170;28;20027;-67
2023/07/20 03:47:50;;;;;;;6.22;2.30;;;;;;;-143.49;100.00;65027.28;5093245;28;20023;-67
2023/07/20 03:50:15;;;;;;;5.28;2.50;;;;;;;-143.49;100.00;65027.28;5093360;28;20387;-67
2023/07/20 03:52:40;;;;;;;3.10;2.28;;;;;;;-143.49;100.00;65027.28;5093244;28;20032;-68
2023/07/20 03:55:06;;;;;;;5.40;2.70;;;;;;;-143.49;100.00;65027.28;5093273;28;20072;-67
2023/07/20 03:57:33;;;;;;;3.38;2.45;;;;;;;-143.49;100.00;65027.28;5093326;28;20356;-67
2023/07/20 03:59:59;;;;;;;7.18;2.67;;;;;;;-143.49;100.00;65027.28;5093207;28;20050;-68
2023/07/20 04:02:25;;;;;;;5.32;2.80;;;;;;;-143.49;100.00;65027.28;5093209;28;20498;-68
2023/07/20 04:04:50;;;;;;;4.65;2.80;;;;;;;-143.49;100.00;65027.28;5093103;28;20027;-67
2023/07/20 04:07:16;;;;;;;4.50;2.67;;;;;;;-143.49;100.00;65027.28;5092823;28;20020;-67
2023/07/20 04:09:41;;;;;;;5.03;2.67;;;;;;;-143.49;100.00;65027.28;5093027;28;20028;-68
2023/07/20 04:12:07;;;;;;;4.43;2.45;;;;;;;-143.49;100.00;65027.28;5093049;28;20221;-67
2023/07/20 04:14:32;;;;;;;3.67;2.50;;;;;;;-143.49;100.00;65027.28;5074896;28;20447;-68
2023/07/20 04:17:00;;;;;;;3.80;2.10;;;;;;;-143.49;100.00;65027.28;5093174;28;20433;-68
2023/07/20 04:19:25;;;;;;;3.70;2.33;;;;;;;-143.49;100.00;65027.28;5092806;28;20051;-68
2023/07/20 04:21:50;;;;;;;3.75;2.08;;;;;;;-143.49;100.00;65027.28;5092929;28;20435;-68
2023/07/20 04:24:16;;;;;;;3.75;1.92;;;;;;;-143.49;100.00;65027.28;5092947;28;20042;-68
2023/07/20 04:26:41;;;;;;;4.47;2.22;;;;;;;-143.49;100.00;65027.28;5092727;28;20017;-68
2023/07/20 04:29:06;;;;;;;4.07;2.10;;;;;;;-143.49;100.00;65027.28;5074581;28;20115;-68
2023/07/20 04:31:33;;;;;;;4.22;2.15;;;;;;;-143.49;100.00;65027.28;5092828;28;20020;-68
2023/07/20 04:33:58;;;;;;;4.90;2.20;;;;;;;-143.49;100.00;65027.28;5092839;28;20357;-68
2023/07/20 04:36:24;;;;;;;4.90;2.10;;;;;;;-143.49;100.00;65027.28;5092607;28;20016;-67
2023/07/20 04:38:49;;;;;;;5.35;2.10;;;;;;;-143.49;100.00;65027.28;5095711;28;20023;-68
2023/07/20 04:41:15;;;;;;;5.32;2.10;;;;;;;-143.49;100.00;65027.28;5077974;28;20071;-68
2023/07/20 04:43:43;;;;;;;5.68;2.03;;;;;;;-143.49;100.00;65027.28;5096224;28;20552;-68
2023/07/20 04:46:12;;;;;;;5.88;2.22;;;;;;;-143.49;100.00;65027.28;5096235;28;20031;-67
2023/07/20 04:48:38;;;;;;;3.78;2.17;;;;;;;-143.49;100.00;65027.28;5096172;28;20031;-67
2023/07/20 04:51:03;;;;;;;4.25;2.20;;;;;;;-143.49;100.00;65027.28;5077930;28;20024;-67
2023/07/20 04:53:29;;;;;;;4.28;2.30;;;;;;;-143.49;100.00;65027.28;5096165;28;20020;-67
2023/07/20 04:55:54;;;;;;;4.40;2.30;;;;;;;-143.49;100.00;65027.28;5096480;28;20024;-68
2023/07/20 04:58:21;;;;;;;4.45;2.25;;;;;;;-143.49;100.00;65027.28;5095985;28;20028;-68
2023/07/20 05:00:48;;;;;;;3.40;2.20;;;;;;;-143.49;100.00;65027.28;5095806;28;20024;-68
2023/07/20 05:03:14;;;;;;;3.55;2.10;;;;;;;-143.49;100.00;65027.28;5095790;28;20020;-68
2023/07/20 05:05:39;;;;;;;4.40;1.90;;;;;;;-143.49;100.00;65027.28;5095882;28;20099;-68
2023/07/20 05:08:05;;;;;;;3.55;1.90;;;;;;;-143.49;100.00;65027.28;5095695;28;20032;-68
2023/07/20 05:10:30;;;;;;;6.75;1.90;;;;;;;-143.49;100.00;65027.28;5079867;28;20039;-67
2023/07/20 05:12:56;;;;;;;2.50;1.70;;;;;;;-143.49;100.00;65027.28;5095749;28;20049;-67
2023/07/20 05:15:21;;;;;;;4.15;1.70;;;;;;;-143.49;100.00;65027.28;5095694;28;20107;-67
2023/07/20 05:17:48;;;;;;;3.45;1.60;;;;;;;-143.49;100.00;65027.28;5095649;28;20020;-67
2023/07/20 05:20:14;;;;;;;2.72;1.30;;;;;;;-143.49;100.00;65027.28;5077244;28;20020;-68
2023/07/20 05:22:40;;;;;;;4.85;1.65;;;;;;;-143.49;100.00;65027.28;5101695;28;20023;-68
2023/07/20 05:25:10;;;;;;;5.57;1.48;;;;;;;-143.49;100.00;65027.28;5102179;28;20024;-69
2023/07/20 05:27:39;;;;;;;2.83;1.40;;;;;;;-143.49;100.00;65027.28;5095250;28;20012;-69
2023/07/20 05:30:07;;;;;;;2.58;1.50;;;;;;;-143.49;100.00;65027.28;5077041;28;20028;-68
2023/07/20 05:32:32;;;;;;;3.35;1.48;;;;;;;-143.49;100.00;65027.28;5095323;28;20055;-68
2023/07/20 05:34:58;;;;;;;8.40;1.50;;;;;;;-143.49;100.00;65027.28;5095189;28;20028;-67
2023/07/20 05:37:23;;;;;;;2.38;1.42;;;;;;;-143.49;100.00;65027.28;5095181;28;20016;-69
2023/07/20 05:39:48;;;;;;;3.25;1.33;;;;;;;-143.49;100.00;65027.28;5095440;28;20436;-67
2023/07/20 05:42:14;;;;;;;1.70;1.20;;;;;;;-143.49;100.00;65027.28;5094958;28;20024;-68
2023/07/20 05:44:40;;;;;;;3.42;1.20;;;;;;;-143.49;100.00;65027.28;5076915;28;20027;-68
2023/07/20 05:47:06;;;;;;;1.73;1.33;;;;;;;-143.49;100.00;65027.28;5095005;28;20023;-68
2023/07/20 05:49:31;;;;;;;3.75;1.10;;;;;;;-143.49;100.00;65027.28;5093970;28;20028;-68
2023/07/20 05:51:56;;;;;;;2.85;1.20;;;;;;;-143.49;100.00;65027.28;5094751;28;20053;-67
2023/07/20 05:54:24;;;;;;;2.33;1.17;;;;;;;-143.49;100.00;65027.28;5094940;28;20050;-67
2023/07/20 05:56:49;;;;;;;2.17;1.10;;;;;;;-143.49;100.00;65027.28;5094741;28;20031;-67
2023/07/20 05:59:15;;;;;;;2.70;1.02;;;;;;;-143.49;100.00;65027.28;5094718;28;20105;-68
2023/07/20 06:01:41;;;;;;;4.55;1.00;;;;;;;-143.49;100.00;65027.28;5076448;28;20492;-69
2023/07/20 06:04:06;;;;;;;2.40;1.02;;;;;;;-143.49;100.00;65027.28;5076651;28;20075;-67
2023/07/20 06:06:32;;;;;;;2.67;1.00;;;;;;;-143.49;100.00;65027.28;5076987;28;20051;-69
2023/07/20 06:08:57;;;;;;;1.52;0.70;;;;;;;-143.49;100.00;65027.28;5094583;28;20471;-67
2023/07/20 06:11:22;;;;;;;4.35;0.80;;;;;;;-143.49;100.00;65027.28;5097605;28;20118;-69
2023/07/20 06:13:48;;;;;;;3.28;0.80;;;;;;;-143.49;100.00;65027.28;5094482;28;20070;-68
2023/07/20 06:16:13;;;;;;;1.45;0.70;;;;;;;-143.49;100.00;65027.28;5094599;28;20031;-67
2023/07/20 06:18:38;;;;;;;1.13;0.65;;;;;;;-143.49;100.00;65027.28;5094264;28;20055;-68
2023/07/20 06:21:04;;;;;;;4.15;0.93;;;;;;;-143.49;100.00;65027.28;5094208;28;20028;-69
2023/07/20 06:23:30;;;;;;;1.77;0.85;;;;;;;-143.49;100.00;65027.28;5094561;28;20034;-69
2023/07/20 06:25:55;;;;;;;1.52;0.60;;;;;;;-143.49;100.00;65027.28;5094520;28;20035;-68
2023/07/20 06:28:20;;;;;;;1.33;0.60;;;;;;;-143.49;100.00;65027.28;5075985;28;20469;-68
2023/07/20 06:30:46;;;;;;;3.22;0.80;;;;;;;-143.49;100.00;65027.28;5094322;28;20061;-68
2023/07/20 06:33:11;;;;;;;2.17;0.80;;;;;;;-143.49;100.00;65027.28;5091649;28;20024;-68
2023/07/20 06:35:37;;;;;;;2.40;0.60;;;;;;;-143.49;100.00;65027.28;5092345;28;20120;-69
2023/07/20 06:38:03;;;;;;;1.45;0.60;;;;;;;-143.49;100.00;65027.28;5092021;28;20020;-68
2023/07/20 06:40:29;;;;;;;2.05;0.60;;;;;;;-143.49;100.00;65027.28;5091948;28;20073;-68
2023/07/20 06:42:55;;;;;;;2.70;0.70;;;;;;;-143.49;100.00;65027.28;5074115;28;20069;-69
2023/07/20 06:45:20;;;;;;;3.00;0.60;;;;;;;-143.49;100.00;65027.28;5092627;28;20024;-68
2023/07/20 06:47:46;;;;;;;1.83;0.77;;;;;;;-143.49;100.00;65027.28;5096653;28;20030;-68
2023/07/20 06:50:11;;;;;;;1.90;0.60;;;;;;;-143.49;100.00;65027.28;5093500;28;20020;-69
2023/07/20 06:52:37;;;;;;;3.45;0.70;;;;;;;-143.49;100.00;65027.28;5093988;28;20023;-68
2023/07/20 06:55:03;;;;;;;2.38;0.70;;;;;;;-143.49;100.00;65027.28;5094969;28;20077;-68
2023/07/20 06:57:28;;;;;;;2.85;0.80;;;;;;;-143.49;100.00;65027.28;5093610;28;20028;-68
2023/07/20 06:59:53;;;;;;;3.85;0.80;;;;;;;-143.49;100.00;65027.28;5093605;28;20094;-68
2023/07/20 07:02:19;;;;;;;3.08;0.70;;;;;;;-143.49;100.00;65027.28;5093777;28;20028;-68
2023/07/20 07:04:45;;;;;;;1.25;0.60;;;;;;;-143.49;100.00;65027.28;5075462;28;20399;-68
2023/07/20 07:07:10;;;;;;;2.28;0.82;;;;;;;-143.49;100.00;65027.28;5093442;28;20498;-68
2023/07/20 07:09:36;;;;;;;2.20;0.77;;;;;;;-143.49;100.00;65027.28;5093805;28;20028;-68
2023/07/20 07:12:01;;;;;;;3.28;0.70;;;;;;;-143.49;100.00;65027.28;5093496;28;20536;-68
2023/07/20 07:14:27;;;;;;;2.15;0.93;;;;;;;-143.49;100.00;65027.28;5075450;28;20147;-68
2023/07/20 07:16:52;;;;;;;2.55;0.80;;;;;;;-143.49;100.00;65027.28;5075277;28;20383;-69
2023/07/20 07:19:17;;;;;;;1.48;0.52;;;;;;;-143.49;100.00;65027.28;5096121;28;20027;-68
2023/07/20 07:21:43;;;;;;;1.15;0.65;;;;;;;-143.49;100.00;65027.28;5083695;28;20031;-69
2023/07/20 07:24:09;;;;;;;1.98;0.90;;;;;;;-143.49;100.00;65027.28;5100915;28;20387;-68
2023/07/20 07:26:36;;;;;;;1.15;0.60;;;;;;;-143.49;100.00;65027.28;5097763;28;20475;-67
2023/07/20 07:29:02;;;;;;;1.05;0.47;;;;;;;-143.49;100.00;65027.28;5098723;28;20028;-69
2023/07/20 07:31:34;;;;;;;1.50;0.50;;;;;;;-143.49;100.00;65027.28;5101168;28;20073;-68
2023/07/20 07:33:59;;;;;;;1.95;0.70;;;;;;;-143.49;100.00;65027.28;5101203;28;20016;-68
2023/07/20 07:36:25;;;;;;;1.20;0.50;;;;;;;-143.49;100.00;65027.28;5101204;28;20494;-68
2023/07/20 07:38:50;;;;;;;4.53;0.50;;;;;;;-143.49;100.00;65027.28;5097210;28;20510;-67
2023/07/20 07:41:16;;;;;;;1.05;0.40;;;;;;;-143.49;100.00;65027.28;5094656;28;20025;-68
2023/07/20 07:43:41;;;;;;;2.58;0.90;;;;;;;-143.49;100.00;65027.28;5095822;28;20024;-67
2023/07/20 07:46:06;;;;;;;1.58;0.52;;;;;;;-143.49;100.00;65027.28;5093944;28;20528;-68
2023/07/20 07:48:32;;;;;;;0.77;0.60;;;;;;;-143.49;100.00;65027.28;5094199;28;20364;-70
2023/07/20 07:50:57;;;;;;;2.67;0.50;;;;;;;-143.49;100.00;65027.28;5093791;28;20107;-67
2023/07/20 07:53:25;;;;;;;1.25;0.63;;;;;;;-143.49;100.00;65027.28;5075787;28;20032;-68
2023/07/20 07:55:50;;;;;;;1.00;0.60;;;;;;;-143.49;100.00;65027.28;5093495;28;20016;-68
2023/07/20 07:58:16;;;;;;;1.85;0.63;;;;;;;-143.49;100.00;65027.28;5093190;28;20043;-68
2023/07/20 08:00:41;;;;;;;1.00;0.40;;;;;;;-143.49;100.00;65027.28;5097946;28;20016;-68
2023/07/20 08:03:07;;;;;;;2.15;0.73;;;;;;;-143.49;100.00;65027.28;5093090;28;20406;-68
2023/07/20 08:05:34;;;;;;;3.15;0.93;;;;;;;-143.49;100.00;65027.28;5098988;28;20035;-67
2023/07/20 08:08:00;;;;;;;2.20;0.40;;;;;;;-143.49;100.00;65027.28;5076441;28;20575;-67
2023/07/20 08:10:25;;;;;;;2.08;0.68;;;;;;;-143.49;100.00;65027.28;5093138;28;20107;-67
2023/07/20 08:12:51;;;;;;;2.25;0.38;;;;;;;-143.49;100.00;65027.28;5078549;28;20016;-67
2023/07/20 08:15:16;;;;;;;1.27;0.50;;;;;;;-143.49;100.00;65027.28;5080776;28;20024;-68
2023/07/20 08:17:44;;;;;;;1.75;0.60;;;;;;;-143.49;100.00;65027.28;5099321;28;20024;-69
2023/07/20 08:20:12;;;;;;;2.42;0.50;;;;;;;-143.49;100.00;65027.28;5097202;28;20028;-70
2023/07/20 08:22:37;;;;;;;2.90;0.63;;;;;;;-143.49;100.00;65027.28;5097280;28;20107;-67
2023/07/20 08:25:03;;;;;;;0.98;0.57;;;;;;;-143.49;100.00;65027.28;5097726;28;20058;-67
2023/07/20 08:27:29;;;;;;;2.10;0.50;;;;;;;-143.49;100.00;65027.28;5079021;28;20024;-68
2023/07/20 08:29:54;;;;;;;0.63;0.35;;;;;;;-143.49;100.00;65027.28;5096604;28;20071;-67
2023/07/20 08:32:19;;;;;;;1.30;0.50;;;;;;;-143.49;100.00;65027.28;5096696;28;20031;-68
2023/07/20 08:34:45;;;;;;;0.68;0.40;;;;;;;-143.49;100.00;65027.28;5097791;28;20097;-67
2023/07/20 08:37:10;;;;;;;3.08;0.70;;;;;;;-143.49;100.00;65027.28;5096553;28;20035;-68
2023/07/20 08:39:35;;;;;;;0.52;0.40;;;;;;;-143.49;100.00;65027.28;5097498;28;20108;-68
2023/07/20 08:42:04;;;;;;;3.28;0.90;;;;;;;-143.49;100.00;65027.28;5099056;28;20158;-67
2023/07/20 08:44:32;;;;;;;1.27;0.57;;;;;;;-143.49;100.00;65027.28;5080102;28;20475;-73
2023/07/20 08:46:59;;;;;;;1.75;0.57;;;;;;;-143.49;100.00;65027.28;5097619;28;20579;-72
2023/07/20 08:49:24;;;;;;;2.22;0.60;;;;;;;-143.49;100.00;65027.28;5096766;28;20434;-73
2023/07/20 08:51:52;;;;;;;2.80;0.50;;;;;;;-143.49;100.00;65027.28;5096897;28;20131;-73
2023/07/20 08:54:17;;;;;;;0.85;0.43;;;;;;;-143.49;100.00;65027.28;5096774;28;20433;-72
2023/07/20 08:56:46;;;;;;;0.95;0.55;;;;;;;-143.49;100.00;65027.28;5080507;28;20020;-72
2023/07/20 08:59:16;;;;;;;1.58;0.40;;;;;;;-143.49;100.00;65027.28;5099038;28;20035;-74
2023/07/20 09:01:42;;;;;;;1.35;0.50;;;;;;;-143.49;100.00;65027.28;5097407;28;20016;-73
2023/07/20 09:04:07;;;;;;;1.63;0.70;;;;;;;-143.49;100.00;65027.28;5097343;28;20039;-72
2023/07/20 09:06:34;;;;;;;0.63;0.43;;;;;;;-143.49;100.00;65027.28;5096423;28;20020;-73
2023/07/20 09:09:00;;;;;;;1.80;0.57;;;;;;;-143.49;100.00;65027.28;5096676;28;20063;-73
2023/07/20 09:11:25;;;;;;;1.63;0.60;;;;;;;-143.49;100.00;65027.28;5096959;28;20383;-73
2023/07/20 09:14:07;;;;;;;0.95;0.40;;;;;;;-143.49;100.00;65027.28;5095915;28;20032;-74
2023/07/20 09:16:48;;;;;;;1.10;0.60;;;;;;;-143.49;100.00;65027.28;5096196;28;20020;-73
2023/07/20 09:19:17;;;;;;;1.83;0.50;;;;;;;-143.49;100.00;65027.28;5096594;28;20024;-73
2023/07/20 09:21:50;;;;;;;1.10;0.60;;;;;;;-143.49;100.00;65027.28;5097206;28;20031;-73
2023/07/20 09:24:18;;;;;;;1.38;0.47;;;;;;;-143.49;100.00;65027.28;5098380;28;20039;-74
2023/07/20 09:26:45;;;;;;;1.05;0.50;;;;;;;-143.49;100.00;65027.28;5097056;28;20027;-74
2023/07/20 09:29:11;;;;;;;0.77;0.55;;;;;;;-143.49;100.00;65027.28;5095200;28;20039;-74
2023/07/20 09:31:37;;;;;;;0.93;0.55;;;;;;;-143.49;100.00;65027.28;5095481;28;20063;-74
2023/07/20 09:34:04;;;;;;;1.70;0.50;;;;;;;-143.49;100.00;65027.28;5095873;28;20340;-72
2023/07/20 09:36:32;;;;;;;1.90;0.40;;;;;;;-143.49;100.00;65027.28;5079473;28;20027;-73
2023/07/20 09:38:58;;;;;;;0.65;0.43;;;;;;;-143.49;100.00;65027.28;5096485;28;20032;-73
2023/07/20 09:41:25;;;;;;;1.08;0.50;;;;;;;-143.49;100.00;65027.28;5078081;28;20016;-73
2023/07/20 09:43:50;;;;;;;1.10;0.57;;;;;;;-143.49;100.00;65027.28;5096601;28;20020;-73
2023/07/20 09:46:17;;;;;;;0.50;0.40;;;;;;;-143.49;100.00;65027.28;5096016;28;20024;-73
2023/07/20 09:48:53;;;;;;;0.50;0.40;;;;;;;-143.49;100.00;65027.28;5078096;28;20100;-73
2023/07/20 09:51:20;;;;;;;1.13;0.50;;;;;;;-143.49;100.00;65027.28;5095859;28;20024;-73
2023/07/20 09:53:48;;;;;;;0.65;0.40;;;;;;;-143.49;100.00;65027.28;5094939;28;20020;-73
2023/07/20 09:56:16;;;;;;;3.03;0.40;;;;;;;-143.49;100.00;65027.28;5095124;28;20024;-73
2023/07/20 09:58:42;;;;;;;1.88;0.40;;;;;;;-143.49;100.00;65027.28;5095688;28;20016;-72
2023/07/20 10:01:10;;;;;;;0.70;0.32;;;;;;;-143.49;100.00;65027.28;5094759;28;20115;-70
2023/07/20 10:03:38;;;;;;;3.33;0.55;;;;;;;-143.49;100.00;65027.28;5076555;28;20024;-70
2023/07/20 10:06:10;;;;;;;2.15;0.70;;;;;;;-143.49;100.00;65027.28;5097177;28;20032;-70
2023/07/20 10:08:41;;;;;;;0.90;0.52;;;;;;;-143.49;100.00;65027.28;5079422;28;20585;-70
2023/07/20 10:11:08;;;;;;;0.80;0.40;;;;;;;-143.49;100.00;65027.28;5096501;28;20100;-69
2023/07/20 10:13:38;;;;;;;3.60;0.60;;;;;;;-143.49;100.00;65027.28;5096010;28;20020;-71
2023/07/20 10:16:12;;;;;;;1.00;0.57;;;;;;;-143.49;100.00;65027.28;5100354;28;20032;-70
2023/07/20 10:18:55;;;;;;;1.88;0.82;;;;;;;-143.49;100.00;65027.28;5078747;28;20028;-72
2023/07/20 10:21:24;;;;;;;1.50;0.70;;;;;;;-143.49;100.00;65027.28;5077293;28;20475;-70
2023/07/20 10:23:49;;;;;;;0.93;0.50;;;;;;;-143.49;100.00;65027.28;5061476;28;20028;-72
2023/07/20 10:26:15;;;;;;;1.65;0.77;;;;;;;-143.49;100.00;65027.28;5077208;28;20099;-72
2023/07/20 10:28:41;;;;;;;2.33;0.88;;;;;;;-143.49;100.00;65027.28;5077785;28;20089;-71
2023/07/20 10:31:11;;;;;;;2.08;0.80;;;;;;;-143.49;100.00;65027.28;5097918;28;20024;-70
2023/07/20 10:33:37;;;;;;;1.55;0.70;;;;;;;-143.49;100.00;65027.28;5076478;28;20028;-71
2023/07/20 10:36:05;;;;;;;1.90;0.47;;;;;;;-143.49;100.00;65027.28;5094288;28;20055;-70
2023/07/20 10:38:47;;;;;;;3.50;0.88;;;;;;;-143.49;100.00;65027.28;5094714;28;20408;-70
2023/07/20 10:41:17;;;;;;;1.23;0.70;;;;;;;-143.49;100.00;65027.28;5095062;28;20096;-70
2023/07/20 10:43:48;;;;;;;1.83;0.80;;;;;;;-143.49;100.00;65027.28;5083284;28;20023;-71
2023/07/20 10:46:37;;;;;;;1.27;0.52;;;;;;;-143.49;100.00;65027.28;5095007;28;20024;-71
2023/07/20 10:49:04;;;;;;;1.25;0.50;;;;;;;-143.49;100.00;65027.28;5080694;28;20183;-71
2023/07/20 10:51:30;;;;;;;4.13;0.65;;;;;;;-143.49;100.00;65027.28;5094659;28;20069;-71
2023/07/20 10:53:58;;;;;;;5.45;0.63;;;;;;;-143.49;100.00;65027.28;5094001;28;20069;-70
2023/07/20 10:56:30;;;;;;;9.82;0.90;;;;;;;-143.49;100.00;65027.28;5075940;28;20020;-70
2023/07/20 10:58:59;;;;;;;1.57;0.70;;;;;;;-143.49;100.00;65027.28;5106820;28;20000;-75
2023/07/20 11:01:29;;;;;;;4.32;0.90;;;;;;;-143.49;100.00;65027.28;5079825;28;20122;-71
2023/07/20 11:03:58;;;;;;;2.45;0.55;;;;;;;-143.49;100.00;65027.28;5092058;28;20035;-72
2023/07/20 11:06:26;;;;;;;2.20;0.63;;;;;;;-143.49;100.00;65027.28;5091852;28;20024;-71
2023/07/20 11:09:07;;;;;;;2.55;0.88;;;;;;;-143.49;100.00;65027.28;5091314;28;20048;-72